Portada
METAR-TAF:

METAR-TAF

Aeropuertos :

Washington Municipal Airport

Washington, Iowa, Estados Unidos

latitud: 41-17N, longitud: 091-40W, altitud: 230 m

Observación

El informe se hizo hace 16 minutos, a las 12:15 UTC
Viento 7 kt del sur-sureste
Temperatura 20°C
Humedad 100%
Presión 1012 hPa
Visibilidad: 16.1 km
Escasas nubes a una altura de 3500 ft
Nubes dispersas a una altura de 4300 ft

METAR: KAWG 251215Z AUTO 15007KT 10SM FEW035 SCT043 20/20 A2989 RMK AO2

Hora: 07:31 (12:31 UTC)


TAF: falta

Observaciones y pronósticos meteorológicos de más de 4000 aeropuertos (mensajes METAR y TAF).

Los puntos amarillos y rojos representan las estaciones disponibles.

Ponga el ratón en el punto deseado para ver el nombre de la estación.

Haga clic para ver las observaciones y los pronósticos meteorológicos.

Para cambiar el mapa : haga clic en los botones verdes con una cruz de color negro para hacer un zoom, en el botón verde con un guión para alejar o en las flechas verdes para mapas adyacentes.


METAR-TAF: